sensor_id;sensor_type;location;lat;lon;timestamp;P1;durP1;ratioP1;P2;durP2;ratioP2
68310;SDS011;55157;51.036;17.058;2023-08-30T00:00:02;4.15;;;2.03;;
68310;SDS011;55157;51.036;17.058;2023-08-30T00:02:28;2.22;;;1.90;;
68310;SDS011;55157;51.036;17.058;2023-08-30T00:04:57;4.60;;;2.00;;
68310;SDS011;55157;51.036;17.058;2023-08-30T00:07:22;2.88;;;1.98;;
68310;SDS011;55157;51.036;17.058;2023-08-30T00:09:49;3.95;;;1.88;;
68310;SDS011;55157;51.036;17.058;2023-08-30T00:12:15;2.92;;;1.80;;
68310;SDS011;55157;51.036;17.058;2023-08-30T00:14:40;2.97;;;1.63;;
68310;SDS011;55157;51.036;17.058;2023-08-30T00:17:05;6.80;;;1.67;;
68310;SDS011;55157;51.036;17.058;2023-08-30T00:19:31;6.78;;;1.90;;
68310;SDS011;55157;51.036;17.058;2023-08-30T00:21:56;4.05;;;1.90;;
68310;SDS011;55157;51.036;17.058;2023-08-30T00:24:21;4.78;;;2.65;;
68310;SDS011;55157;51.036;17.058;2023-08-30T00:26:48;4.88;;;1.92;;
68310;SDS011;55157;51.036;17.058;2023-08-30T00:29:13;3.15;;;2.08;;
68310;SDS011;55157;51.036;17.058;2023-08-30T00:31:38;2.47;;;1.95;;
68310;SDS011;55157;51.036;17.058;2023-08-30T00:34:03;3.28;;;2.20;;
68310;SDS011;55157;51.036;17.058;2023-08-30T00:36:29;6.05;;;2.25;;
68310;SDS011;55157;51.036;17.058;2023-08-30T00:38:54;7.18;;;2.17;;
68310;SDS011;55157;51.036;17.058;2023-08-30T00:41:19;2.40;;;2.17;;
68310;SDS011;55157;51.036;17.058;2023-08-30T00:43:46;3.47;;;1.95;;
68310;SDS011;55157;51.036;17.058;2023-08-30T00:46:11;4.90;;;2.70;;
68310;SDS011;55157;51.036;17.058;2023-08-30T00:48:37;8.43;;;2.60;;
68310;SDS011;55157;51.036;17.058;2023-08-30T00:51:03;9.27;;;2.42;;
68310;SDS011;55157;51.036;17.058;2023-08-30T00:53:28;6.80;;;2.72;;
68310;SDS011;55157;51.036;17.058;2023-08-30T00:55:53;3.42;;;2.17;;
68310;SDS011;55157;51.036;17.058;2023-08-30T00:58:18;4.70;;;2.25;;
68310;SDS011;55157;51.036;17.058;2023-08-30T01:00:45;2.75;;;2.28;;
68310;SDS011;55157;51.036;17.058;2023-08-30T01:03:10;3.33;;;2.35;;
68310;SDS011;55157;51.036;17.058;2023-08-30T01:05:36;3.95;;;2.70;;
68310;SDS011;55157;51.036;17.058;2023-08-30T01:08:01;4.90;;;3.00;;
68310;SDS011;55157;51.036;17.058;2023-08-30T01:10:27;3.13;;;2.35;;
68310;SDS011;55157;51.036;17.058;2023-08-30T01:12:57;3.10;;;2.20;;
68310;SDS011;55157;51.036;17.058;2023-08-30T01:15:24;4.22;;;2.20;;
68310;SDS011;55157;51.036;17.058;2023-08-30T01:17:52;3.13;;;2.20;;
68310;SDS011;55157;51.036;17.058;2023-08-30T01:20:17;4.30;;;2.22;;
68310;SDS011;55157;51.036;17.058;2023-08-30T01:22:45;5.15;;;2.28;;
68310;SDS011;55157;51.036;17.058;2023-08-30T01:25:14;2.35;;;1.92;;
68310;SDS011;55157;51.036;17.058;2023-08-30T01:27:42;3.47;;;2.53;;
68310;SDS011;55157;51.036;17.058;2023-08-30T01:30:08;6.15;;;2.47;;
68310;SDS011;55157;51.036;17.058;2023-08-30T01:32:35;2.38;;;2.17;;
68310;SDS011;55157;51.036;17.058;2023-08-30T01:35:01;2.60;;;2.30;;
68310;SDS011;55157;51.036;17.058;2023-08-30T01:37:27;6.50;;;2.33;;
68310;SDS011;55157;51.036;17.058;2023-08-30T01:39:52;5.72;;;2.42;;
68310;SDS011;55157;51.036;17.058;2023-08-30T01:42:19;4.80;;;2.08;;
68310;SDS011;55157;51.036;17.058;2023-08-30T01:44:46;4.78;;;2.42;;
68310;SDS011;55157;51.036;17.058;2023-08-30T01:47:11;5.43;;;2.55;;
68310;SDS011;55157;51.036;17.058;2023-08-30T01:49:36;3.58;;;2.92;;
68310;SDS011;55157;51.036;17.058;2023-08-30T01:52:02;5.85;;;2.92;;
68310;SDS011;55157;51.036;17.058;2023-08-30T01:54:27;5.38;;;3.42;;
68310;SDS011;55157;51.036;17.058;2023-08-30T01:56:53;4.03;;;3.08;;
68310;SDS011;55157;51.036;17.058;2023-08-30T01:59:18;8.10;;;2.88;;
68310;SDS011;55157;51.036;17.058;2023-08-30T02:01:45;3.58;;;2.80;;
68310;SDS011;55157;51.036;17.058;2023-08-30T02:04:10;5.15;;;2.58;;
68310;SDS011;55157;51.036;17.058;2023-08-30T02:06:35;9.55;;;2.90;;
68310;SDS011;55157;51.036;17.058;2023-08-30T02:09:04;3.60;;;2.08;;
68310;SDS011;55157;51.036;17.058;2023-08-30T02:11:32;4.68;;;2.38;;
68310;SDS011;55157;51.036;17.058;2023-08-30T02:13:59;3.83;;;2.30;;
68310;SDS011;55157;51.036;17.058;2023-08-30T02:16:25;3.42;;;2.58;;
68310;SDS011;55157;51.036;17.058;2023-08-30T02:18:52;2.60;;;2.33;;
68310;SDS011;55157;51.036;17.058;2023-08-30T02:21:18;3.75;;;2.55;;
68310;SDS011;55157;51.036;17.058;2023-08-30T02:23:43;3.90;;;2.20;;
68310;SDS011;55157;51.036;17.058;2023-08-30T02:26:09;4.60;;;2.13;;
68310;SDS011;55157;51.036;17.058;2023-08-30T02:28:34;9.35;;;2.80;;
68310;SDS011;55157;51.036;17.058;2023-08-30T02:30:59;8.40;;;2.47;;
68310;SDS011;55157;51.036;17.058;2023-08-30T02:33:24;2.42;;;2.22;;
68310;SDS011;55157;51.036;17.058;2023-08-30T02:35:51;4.85;;;2.63;;
68310;SDS011;55157;51.036;17.058;2023-08-30T02:38:16;5.97;;;2.70;;
68310;SDS011;55157;51.036;17.058;2023-08-30T02:40:41;7.97;;;3.00;;
68310;SDS011;55157;51.036;17.058;2023-08-30T02:43:07;5.65;;;2.85;;
68310;SDS011;55157;51.036;17.058;2023-08-30T02:45:32;5.80;;;3.10;;
68310;SDS011;55157;51.036;17.058;2023-08-30T02:47:57;4.25;;;1.90;;
68310;SDS011;55157;51.036;17.058;2023-08-30T02:50:23;4.72;;;2.10;;
68310;SDS011;55157;51.036;17.058;2023-08-30T02:52:50;3.50;;;1.90;;
68310;SDS011;55157;51.036;17.058;2023-08-30T02:55:15;3.78;;;1.90;;
68310;SDS011;55157;51.036;17.058;2023-08-30T02:57:40;2.60;;;1.90;;
68310;SDS011;55157;51.036;17.058;2023-08-30T03:00:06;2.05;;;1.85;;
68310;SDS011;55157;51.036;17.058;2023-08-30T03:02:31;3.97;;;2.30;;
68310;SDS011;55157;51.036;17.058;2023-08-30T03:04:57;5.70;;;2.17;;
68310;SDS011;55157;51.036;17.058;2023-08-30T03:07:22;3.35;;;1.73;;
68310;SDS011;55157;51.036;17.058;2023-08-30T03:09:52;3.47;;;2.10;;
68310;SDS011;55157;51.036;17.058;2023-08-30T03:12:18;4.30;;;2.22;;
68310;SDS011;55157;51.036;17.058;2023-08-30T03:14:43;2.53;;;2.05;;
68310;SDS011;55157;51.036;17.058;2023-08-30T03:17:08;3.55;;;2.50;;
68310;SDS011;55157;51.036;17.058;2023-08-30T03:19:33;2.95;;;2.40;;
68310;SDS011;55157;51.036;17.058;2023-08-30T03:21:59;3.80;;;2.05;;
68310;SDS011;55157;51.036;17.058;2023-08-30T03:24:24;11.35;;;2.63;;
68310;SDS011;55157;51.036;17.058;2023-08-30T03:26:50;5.72;;;2.80;;
68310;SDS011;55157;51.036;17.058;2023-08-30T03:29:16;7.13;;;2.80;;
68310;SDS011;55157;51.036;17.058;2023-08-30T03:31:41;7.72;;;2.80;;
68310;SDS011;55157;51.036;17.058;2023-08-30T03:34:06;5.13;;;3.30;;
68310;SDS011;55157;51.036;17.058;2023-08-30T03:36:31;6.03;;;3.00;;
68310;SDS011;55157;51.036;17.058;2023-08-30T03:38:57;5.97;;;3.55;;
68310;SDS011;55157;51.036;17.058;2023-08-30T03:41:22;10.52;;;3.60;;
68310;SDS011;55157;51.036;17.058;2023-08-30T03:43:49;8.30;;;4.18;;
68310;SDS011;55157;51.036;17.058;2023-08-30T03:46:14;7.90;;;3.72;;
68310;SDS011;55157;51.036;17.058;2023-08-30T03:48:39;5.60;;;3.80;;
68310;SDS011;55157;51.036;17.058;2023-08-30T03:51:04;5.80;;;4.07;;
68310;SDS011;55157;51.036;17.058;2023-08-30T03:53:30;9.57;;;4.68;;
68310;SDS011;55157;51.036;17.058;2023-08-30T03:55:55;6.60;;;4.97;;
68310;SDS011;55157;51.036;17.058;2023-08-30T03:58:20;6.70;;;4.78;;
68310;SDS011;55157;51.036;17.058;2023-08-30T04:00:47;9.52;;;5.45;;
68310;SDS011;55157;51.036;17.058;2023-08-30T04:03:13;7.72;;;5.28;;
68310;SDS011;55157;51.036;17.058;2023-08-30T04:05:38;6.85;;;4.88;;
68310;SDS011;55157;51.036;17.058;2023-08-30T04:08:04;9.75;;;5.57;;
68310;SDS011;55157;51.036;17.058;2023-08-30T04:10:34;7.53;;;5.03;;
68310;SDS011;55157;51.036;17.058;2023-08-30T04:12:59;9.23;;;5.32;;
68310;SDS011;55157;51.036;17.058;2023-08-30T04:15:24;11.85;;;6.53;;
68310;SDS011;55157;51.036;17.058;2023-08-30T04:17:51;7.80;;;5.50;;
68310;SDS011;55157;51.036;17.058;2023-08-30T04:20:16;8.55;;;4.85;;
68310;SDS011;55157;51.036;17.058;2023-08-30T04:22:41;5.22;;;4.72;;
68310;SDS011;55157;51.036;17.058;2023-08-30T04:25:07;5.25;;;4.72;;
68310;SDS011;55157;51.036;17.058;2023-08-30T04:27:32;5.40;;;4.60;;
68310;SDS011;55157;51.036;17.058;2023-08-30T04:29:57;8.18;;;4.90;;
68310;SDS011;55157;51.036;17.058;2023-08-30T04:32:23;4.50;;;4.05;;
68310;SDS011;55157;51.036;17.058;2023-08-30T04:34:49;7.00;;;4.03;;
68310;SDS011;55157;51.036;17.058;2023-08-30T04:37:15;6.82;;;3.92;;
68310;SDS011;55157;51.036;17.058;2023-08-30T04:39:40;6.68;;;3.55;;
68310;SDS011;55157;51.036;17.058;2023-08-30T04:42:06;3.90;;;3.53;;
68310;SDS011;55157;51.036;17.058;2023-08-30T04:44:31;5.22;;;4.22;;
68310;SDS011;55157;51.036;17.058;2023-08-30T04:46:56;5.53;;;4.18;;
68310;SDS011;55157;51.036;17.058;2023-08-30T04:49:22;4.20;;;3.00;;
68310;SDS011;55157;51.036;17.058;2023-08-30T04:51:48;3.97;;;2.58;;
68310;SDS011;55157;51.036;17.058;2023-08-30T04:54:13;3.05;;;2.75;;
68310;SDS011;55157;51.036;17.058;2023-08-30T04:56:39;3.55;;;2.35;;
68310;SDS011;55157;51.036;17.058;2023-08-30T04:59:04;3.47;;;2.70;;
68310;SDS011;55157;51.036;17.058;2023-08-30T05:01:29;6.30;;;2.88;;
68310;SDS011;55157;51.036;17.058;2023-08-30T05:03:55;4.03;;;2.90;;
68310;SDS011;55157;51.036;17.058;2023-08-30T05:06:20;4.82;;;3.20;;
68310;SDS011;55157;51.036;17.058;2023-08-30T05:08:50;5.72;;;4.18;;
68310;SDS011;55157;51.036;17.058;2023-08-30T05:11:16;5.28;;;3.03;;
68310;SDS011;55157;51.036;17.058;2023-08-30T05:13:41;5.35;;;3.00;;
68310;SDS011;55157;51.036;17.058;2023-08-30T05:16:06;3.47;;;2.53;;
68310;SDS011;55157;51.036;17.058;2023-08-30T05:18:31;3.72;;;2.65;;
68310;SDS011;55157;51.036;17.058;2023-08-30T05:20:57;4.53;;;2.72;;
68310;SDS011;55157;51.036;17.058;2023-08-30T05:23:22;3.63;;;2.42;;
68310;SDS011;55157;51.036;17.058;2023-08-30T05:25:49;5.80;;;2.47;;
68310;SDS011;55157;51.036;17.058;2023-08-30T05:28:14;3.83;;;2.65;;
68310;SDS011;55157;51.036;17.058;2023-08-30T05:30:41;4.38;;;3.58;;
68310;SDS011;55157;51.036;17.058;2023-08-30T05:33:06;5.00;;;2.92;;
68310;SDS011;55157;51.036;17.058;2023-08-30T05:35:31;4.97;;;2.90;;
68310;SDS011;55157;51.036;17.058;2023-08-30T05:37:57;3.70;;;2.70;;
68310;SDS011;55157;51.036;17.058;2023-08-30T05:40:22;4.95;;;2.88;;
68310;SDS011;55157;51.036;17.058;2023-08-30T05:42:49;4.78;;;2.90;;
68310;SDS011;55157;51.036;17.058;2023-08-30T05:45:14;2.97;;;2.67;;
68310;SDS011;55157;51.036;17.058;2023-08-30T05:47:39;3.55;;;2.40;;
68310;SDS011;55157;51.036;17.058;2023-08-30T05:50:05;2.85;;;2.65;;
68310;SDS011;55157;51.036;17.058;2023-08-30T05:52:31;7.05;;;3.10;;
68310;SDS011;55157;51.036;17.058;2023-08-30T05:54:57;3.00;;;2.63;;
68310;SDS011;55157;51.036;17.058;2023-08-30T05:57:22;2.72;;;2.50;;
68310;SDS011;55157;51.036;17.058;2023-08-30T05:59:49;5.38;;;3.22;;
68310;SDS011;55157;51.036;17.058;2023-08-30T06:02:14;3.85;;;2.25;;
68310;SDS011;55157;51.036;17.058;2023-08-30T06:04:39;3.30;;;2.35;;
68310;SDS011;55157;51.036;17.058;2023-08-30T06:07:05;2.78;;;2.03;;
68310;SDS011;55157;51.036;17.058;2023-08-30T06:09:30;4.25;;;1.75;;
68310;SDS011;55157;51.036;17.058;2023-08-30T06:11:55;5.00;;;1.73;;
68310;SDS011;55157;51.036;17.058;2023-08-30T06:14:21;2.08;;;1.70;;
68310;SDS011;55157;51.036;17.058;2023-08-30T06:16:48;4.22;;;1.63;;
68310;SDS011;55157;51.036;17.058;2023-08-30T06:19:13;2.28;;;1.58;;
68310;SDS011;55157;51.036;17.058;2023-08-30T06:21:38;6.10;;;1.90;;
68310;SDS011;55157;51.036;17.058;2023-08-30T06:24:03;4.45;;;1.60;;
68310;SDS011;55157;51.036;17.058;2023-08-30T06:26:29;3.20;;;1.40;;
68310;SDS011;55157;51.036;17.058;2023-08-30T06:28:54;2.35;;;1.50;;
68310;SDS011;55157;51.036;17.058;2023-08-30T06:31:19;2.50;;;1.67;;
68310;SDS011;55157;51.036;17.058;2023-08-30T06:33:46;2.20;;;1.30;;
68310;SDS011;55157;51.036;17.058;2023-08-30T06:36:12;2.85;;;1.35;;
68310;SDS011;55157;51.036;17.058;2023-08-30T06:38:37;1.80;;;1.17;;
68310;SDS011;55157;51.036;17.058;2023-08-30T06:41:03;1.67;;;0.90;;
68310;SDS011;55157;51.036;17.058;2023-08-30T06:43:28;8.07;;;0.95;;
68310;SDS011;55157;51.036;17.058;2023-08-30T06:45:53;1.20;;;0.50;;
68310;SDS011;55157;51.036;17.058;2023-08-30T06:48:18;3.95;;;0.70;;
68310;SDS011;55157;51.036;17.058;2023-08-30T06:50:45;3.22;;;0.60;;
68310;SDS011;55157;51.036;17.058;2023-08-30T06:53:10;5.05;;;0.68;;
68310;SDS011;55157;51.036;17.058;2023-08-30T06:55:36;0.70;;;0.70;;
68310;SDS011;55157;51.036;17.058;2023-08-30T06:58:01;5.85;;;0.70;;
68310;SDS011;55157;51.036;17.058;2023-08-30T07:00:26;0.70;;;0.70;;
68310;SDS011;55157;51.036;17.058;2023-08-30T07:02:52;0.60;;;0.60;;
68310;SDS011;55157;51.036;17.058;2023-08-30T07:05:17;0.90;;;0.70;;
68310;SDS011;55157;51.036;17.058;2023-08-30T07:07:43;3.10;;;1.10;;
68310;SDS011;55157;51.036;17.058;2023-08-30T07:10:09;6.80;;;1.10;;
68310;SDS011;55157;51.036;17.058;2023-08-30T07:12:34;6.03;;;1.80;;
68310;SDS011;55157;51.036;17.058;2023-08-30T07:14:59;2.30;;;1.60;;
68310;SDS011;55157;51.036;17.058;2023-08-30T07:17:25;2.25;;;1.60;;
68310;SDS011;55157;51.036;17.058;2023-08-30T07:19:50;1.70;;;1.60;;
68310;SDS011;55157;51.036;17.058;2023-08-30T07:22:15;4.72;;;1.35;;
68310;SDS011;55157;51.036;17.058;2023-08-30T07:24:42;4.45;;;1.40;;
68310;SDS011;55157;51.036;17.058;2023-08-30T07:27:07;4.82;;;1.42;;
68310;SDS011;55157;51.036;17.058;2023-08-30T07:29:32;3.75;;;1.05;;
68310;SDS011;55157;51.036;17.058;2023-08-30T07:31:57;7.25;;;0.90;;
68310;SDS011;55157;51.036;17.058;2023-08-30T07:34:23;1.20;;;0.88;;
68310;SDS011;55157;51.036;17.058;2023-08-30T07:36:48;2.42;;;0.80;;
68310;SDS011;55157;51.036;17.058;2023-08-30T07:39:13;1.98;;;1.20;;
68310;SDS011;55157;51.036;17.058;2023-08-30T07:41:40;0.70;;;0.60;;
68310;SDS011;55157;51.036;17.058;2023-08-30T07:44:05;0.93;;;0.70;;
68310;SDS011;55157;51.036;17.058;2023-08-30T07:46:31;1.13;;;0.63;;
68310;SDS011;55157;51.036;17.058;2023-08-30T07:48:56;0.90;;;0.60;;
68310;SDS011;55157;51.036;17.058;2023-08-30T07:51:21;0.95;;;0.60;;
68310;SDS011;55157;51.036;17.058;2023-08-30T07:53:46;3.50;;;1.25;;
68310;SDS011;55157;51.036;17.058;2023-08-30T07:56:12;2.35;;;0.63;;
68310;SDS011;55157;51.036;17.058;2023-08-30T07:58:40;1.92;;;0.40;;
68310;SDS011;55157;51.036;17.058;2023-08-30T08:01:05;1.23;;;0.40;;
68310;SDS011;55157;51.036;17.058;2023-08-30T08:03:30;0.50;;;0.38;;
68310;SDS011;55157;51.036;17.058;2023-08-30T08:05:57;0.40;;;0.40;;
68310;SDS011;55157;51.036;17.058;2023-08-30T08:08:22;0.88;;;0.40;;
68310;SDS011;55157;51.036;17.058;2023-08-30T08:10:48;0.40;;;0.40;;
68310;SDS011;55157;51.036;17.058;2023-08-30T08:13:13;0.38;;;0.38;;
68310;SDS011;55157;51.036;17.058;2023-08-30T08:15:40;1.67;;;0.50;;
68310;SDS011;55157;51.036;17.058;2023-08-30T08:18:05;0.65;;;0.38;;
68310;SDS011;55157;51.036;17.058;2023-08-30T08:20:32;0.85;;;0.50;;
68310;SDS011;55157;51.036;17.058;2023-08-30T08:22:57;0.77;;;0.68;;
68310;SDS011;55157;51.036;17.058;2023-08-30T08:25:22;2.65;;;0.40;;
68310;SDS011;55157;51.036;17.058;2023-08-30T08:27:47;2.72;;;0.60;;
68310;SDS011;55157;51.036;17.058;2023-08-30T08:30:13;0.60;;;0.40;;
68310;SDS011;55157;51.036;17.058;2023-08-30T08:32:40;0.50;;;0.50;;
68310;SDS011;55157;51.036;17.058;2023-08-30T08:35:05;4.20;;;0.68;;
68310;SDS011;55157;51.036;17.058;2023-08-30T08:37:31;0.93;;;0.65;;
68310;SDS011;55157;51.036;17.058;2023-08-30T08:39:56;1.45;;;0.50;;
68310;SDS011;55157;51.036;17.058;2023-08-30T08:42:21;0.70;;;0.70;;
68310;SDS011;55157;51.036;17.058;2023-08-30T08:44:47;1.23;;;0.68;;
68310;SDS011;55157;51.036;17.058;2023-08-30T08:47:12;0.65;;;0.60;;
68310;SDS011;55157;51.036;17.058;2023-08-30T08:49:39;1.45;;;0.80;;
68310;SDS011;55157;51.036;17.058;2023-08-30T08:52:04;0.80;;;0.80;;
68310;SDS011;55157;51.036;17.058;2023-08-30T08:54:30;0.85;;;0.40;;
68310;SDS011;55157;51.036;17.058;2023-08-30T08:56:55;2.47;;;0.70;;
68310;SDS011;55157;51.036;17.058;2023-08-30T08:59:22;0.85;;;0.55;;
68310;SDS011;55157;51.036;17.058;2023-08-30T09:01:47;2.42;;;0.55;;
68310;SDS011;55157;51.036;17.058;2023-08-30T09:04:13;2.05;;;0.50;;
68310;SDS011;55157;51.036;17.058;2023-08-30T09:06:40;0.63;;;0.50;;
68310;SDS011;55157;51.036;17.058;2023-08-30T09:09:05;0.73;;;0.50;;
68310;SDS011;55157;51.036;17.058;2023-08-30T09:11:30;2.88;;;0.73;;
68310;SDS011;55157;51.036;17.058;2023-08-30T09:13:56;4.00;;;0.55;;
68310;SDS011;55157;51.036;17.058;2023-08-30T09:16:21;0.90;;;0.52;;
68310;SDS011;55157;51.036;17.058;2023-08-30T09:18:56;1.10;;;0.65;;
68310;SDS011;55157;51.036;17.058;2023-08-30T09:21:21;0.55;;;0.50;;
68310;SDS011;55157;51.036;17.058;2023-08-30T09:23:48;1.10;;;0.60;;
68310;SDS011;55157;51.036;17.058;2023-08-30T09:26:21;3.70;;;0.80;;
68310;SDS011;55157;51.036;17.058;2023-08-30T09:28:46;0.43;;;0.43;;
68310;SDS011;55157;51.036;17.058;2023-08-30T09:31:16;0.98;;;0.60;;
68310;SDS011;55157;51.036;17.058;2023-08-30T09:33:41;1.40;;;0.65;;
68310;SDS011;55157;51.036;17.058;2023-08-30T09:36:09;2.78;;;0.50;;
68310;SDS011;55157;51.036;17.058;2023-08-30T09:38:36;7.03;;;0.70;;
68310;SDS011;55157;51.036;17.058;2023-08-30T09:41:06;1.30;;;0.68;;
68310;SDS011;55157;51.036;17.058;2023-08-30T09:43:31;0.90;;;0.60;;
68310;SDS011;55157;51.036;17.058;2023-08-30T09:45:57;2.28;;;0.55;;
68310;SDS011;55157;51.036;17.058;2023-08-30T09:48:22;1.55;;;0.85;;
68310;SDS011;55157;51.036;17.058;2023-08-30T09:50:49;1.10;;;0.70;;
68310;SDS011;55157;51.036;17.058;2023-08-30T09:53:17;2.83;;;0.70;;
68310;SDS011;55157;51.036;17.058;2023-08-30T09:55:42;3.13;;;0.50;;
68310;SDS011;55157;51.036;17.058;2023-08-30T09:58:10;0.90;;;0.60;;
68310;SDS011;55157;51.036;17.058;2023-08-30T10:00:35;0.68;;;0.50;;
68310;SDS011;55157;51.036;17.058;2023-08-30T10:03:00;2.47;;;0.70;;
68310;SDS011;55157;51.036;17.058;2023-08-30T10:05:26;1.77;;;0.50;;
68310;SDS011;55157;51.036;17.058;2023-08-30T10:07:51;0.57;;;0.50;;
68310;SDS011;55157;51.036;17.058;2023-08-30T10:10:17;1.27;;;0.50;;
68310;SDS011;55157;51.036;17.058;2023-08-30T10:12:42;3.13;;;0.50;;
68310;SDS011;55157;51.036;17.058;2023-08-30T10:15:12;0.50;;;0.50;;
68310;SDS011;55157;51.036;17.058;2023-08-30T10:17:38;1.08;;;0.70;;
68310;SDS011;55157;51.036;17.058;2023-08-30T10:20:19;0.85;;;0.40;;
68310;SDS011;55157;51.036;17.058;2023-08-30T10:22:44;0.60;;;0.55;;
68310;SDS011;55157;51.036;17.058;2023-08-30T10:25:11;1.00;;;0.43;;
68310;SDS011;55157;51.036;17.058;2023-08-30T10:27:39;3.42;;;0.60;;
68310;SDS011;55157;51.036;17.058;2023-08-30T10:30:07;0.93;;;0.60;;
68310;SDS011;55157;51.036;17.058;2023-08-30T10:32:39;0.73;;;0.60;;
68310;SDS011;55157;51.036;17.058;2023-08-30T10:35:05;0.60;;;0.55;;
68310;SDS011;55157;51.036;17.058;2023-08-30T10:37:30;0.93;;;0.65;;
68310;SDS011;55157;51.036;17.058;2023-08-30T10:39:59;2.60;;;0.60;;
68310;SDS011;55157;51.036;17.058;2023-08-30T10:42:24;1.23;;;0.57;;
68310;SDS011;55157;51.036;17.058;2023-08-30T10:44:49;2.05;;;0.60;;
68310;SDS011;55157;51.036;17.058;2023-08-30T10:50:03;0.60;;;0.50;;
68310;SDS011;55157;51.036;17.058;2023-08-30T10:52:28;1.90;;;0.60;;
68310;SDS011;55157;51.036;17.058;2023-08-30T10:55:04;0.95;;;0.50;;
68310;SDS011;55157;51.036;17.058;2023-08-30T10:57:29;3.65;;;0.50;;
68310;SDS011;55157;51.036;17.058;2023-08-30T11:00:03;0.98;;;0.43;;
68310;SDS011;55157;51.036;17.058;2023-08-30T11:02:29;1.95;;;0.57;;
68310;SDS011;55157;51.036;17.058;2023-08-30T11:04:54;4.95;;;0.57;;
68310;SDS011;55157;51.036;17.058;2023-08-30T11:07:21;1.35;;;0.70;;
68310;SDS011;55157;51.036;17.058;2023-08-30T11:09:48;0.40;;;0.40;;
68310;SDS011;55157;51.036;17.058;2023-08-30T11:12:13;3.90;;;0.57;;
68310;SDS011;55157;51.036;17.058;2023-08-30T11:14:40;1.55;;;0.65;;
68310;SDS011;55157;51.036;17.058;2023-08-30T11:17:08;1.55;;;0.60;;
68310;SDS011;55157;51.036;17.058;2023-08-30T11:19:34;1.80;;;0.85;;
68310;SDS011;55157;51.036;17.058;2023-08-30T11:21:59;0.70;;;0.60;;
68310;SDS011;55157;51.036;17.058;2023-08-30T11:24:26;3.63;;;0.90;;
68310;SDS011;55157;51.036;17.058;2023-08-30T11:26:55;1.85;;;1.38;;
68310;SDS011;55157;51.036;17.058;2023-08-30T11:29:20;3.70;;;2.35;;
68310;SDS011;55157;51.036;17.058;2023-08-30T11:31:45;2.78;;;2.03;;
68310;SDS011;55157;51.036;17.058;2023-08-30T11:34:10;3.85;;;2.50;;
68310;SDS011;55157;51.036;17.058;2023-08-30T11:36:36;2.80;;;2.40;;
68310;SDS011;55157;51.036;17.058;2023-08-30T11:39:01;3.88;;;2.45;;
68310;SDS011;55157;51.036;17.058;2023-08-30T11:41:28;3.22;;;2.20;;
68310;SDS011;55157;51.036;17.058;2023-08-30T11:43:53;4.35;;;2.30;;
68310;SDS011;55157;51.036;17.058;2023-08-30T11:46:19;2.88;;;2.53;;
68310;SDS011;55157;51.036;17.058;2023-08-30T11:48:45;3.42;;;2.35;;
68310;SDS011;55157;51.036;17.058;2023-08-30T11:51:11;2.65;;;2.03;;
68310;SDS011;55157;51.036;17.058;2023-08-30T11:53:36;4.47;;;2.08;;
68310;SDS011;55157;51.036;17.058;2023-08-30T11:56:02;3.05;;;2.47;;
68310;SDS011;55157;51.036;17.058;2023-08-30T11:58:29;2.55;;;2.00;;
68310;SDS011;55157;51.036;17.058;2023-08-30T12:00:56;2.78;;;2.58;;
68310;SDS011;55157;51.036;17.058;2023-08-30T12:03:22;4.10;;;2.70;;
68310;SDS011;55157;51.036;17.058;2023-08-30T12:05:48;3.10;;;2.67;;
68310;SDS011;55157;51.036;17.058;2023-08-30T12:08:19;6.55;;;2.38;;
68310;SDS011;55157;51.036;17.058;2023-08-30T12:10:45;4.35;;;2.40;;
68310;SDS011;55157;51.036;17.058;2023-08-30T12:13:19;2.13;;;1.60;;
68310;SDS011;55157;51.036;17.058;2023-08-30T12:15:45;2.20;;;1.70;;
68310;SDS011;55157;51.036;17.058;2023-08-30T12:18:11;4.25;;;1.83;;
68310;SDS011;55157;51.036;17.058;2023-08-30T12:20:36;2.22;;;2.03;;
68310;SDS011;55157;51.036;17.058;2023-08-30T12:23:02;2.47;;;2.00;;
68310;SDS011;55157;51.036;17.058;2023-08-30T12:25:27;6.05;;;2.70;;
68310;SDS011;55157;51.036;17.058;2023-08-30T12:27:52;3.13;;;2.83;;
68310;SDS011;55157;51.036;17.058;2023-08-30T12:30:18;3.30;;;3.00;;
68310;SDS011;55157;51.036;17.058;2023-08-30T12:32:45;2.95;;;2.75;;
68310;SDS011;55157;51.036;17.058;2023-08-30T12:35:11;3.78;;;3.47;;
68310;SDS011;55157;51.036;17.058;2023-08-30T12:37:36;3.35;;;3.05;;
68310;SDS011;55157;51.036;17.058;2023-08-30T12:40:01;5.25;;;3.50;;
68310;SDS011;55157;51.036;17.058;2023-08-30T12:42:26;3.70;;;3.40;;
68310;SDS011;55157;51.036;17.058;2023-08-30T12:44:53;3.70;;;3.40;;
68310;SDS011;55157;51.036;17.058;2023-08-30T12:47:18;4.20;;;3.80;;
68310;SDS011;55157;51.036;17.058;2023-08-30T12:49:45;4.78;;;4.20;;
68310;SDS011;55157;51.036;17.058;2023-08-30T12:52:10;3.70;;;3.40;;
68310;SDS011;55157;51.036;17.058;2023-08-30T12:54:36;3.65;;;3.05;;
68310;SDS011;55157;51.036;17.058;2023-08-30T12:57:01;3.17;;;2.85;;
68310;SDS011;55157;51.036;17.058;2023-08-30T12:59:26;7.80;;;6.63;;
68310;SDS011;55157;51.036;17.058;2023-08-30T13:01:51;5.78;;;5.00;;
68310;SDS011;55157;51.036;17.058;2023-08-30T13:04:17;3.08;;;2.78;;
68310;SDS011;55157;51.036;17.058;2023-08-30T13:06:43;5.50;;;2.53;;
68310;SDS011;55157;51.036;17.058;2023-08-30T13:09:09;3.60;;;2.78;;
68310;SDS011;55157;51.036;17.058;2023-08-30T13:11:34;2.05;;;1.75;;
68310;SDS011;55157;51.036;17.058;2023-08-30T13:13:59;2.42;;;1.90;;
68310;SDS011;55157;51.036;17.058;2023-08-30T13:16:24;2.08;;;1.80;;
68310;SDS011;55157;51.036;17.058;2023-08-30T13:18:50;8.25;;;4.20;;
68310;SDS011;55157;51.036;17.058;2023-08-30T13:21:15;8.93;;;5.47;;
68310;SDS011;55157;51.036;17.058;2023-08-30T13:23:42;4.30;;;2.85;;
68310;SDS011;55157;51.036;17.058;2023-08-30T13:26:07;5.97;;;4.18;;
68310;SDS011;55157;51.036;17.058;2023-08-30T13:28:32;5.45;;;3.90;;
68310;SDS011;55157;51.036;17.058;2023-08-30T13:30:57;2.80;;;2.58;;
68310;SDS011;55157;51.036;17.058;2023-08-30T13:33:23;4.10;;;2.70;;
68310;SDS011;55157;51.036;17.058;2023-08-30T13:35:48;5.40;;;2.63;;
68310;SDS011;55157;51.036;17.058;2023-08-30T13:38:14;3.08;;;1.90;;
68310;SDS011;55157;51.036;17.058;2023-08-30T13:40:40;6.28;;;1.55;;
68310;SDS011;55157;51.036;17.058;2023-08-30T13:43:06;1.00;;;0.80;;
68310;SDS011;55157;51.036;17.058;2023-08-30T13:45:31;7.30;;;1.08;;
68310;SDS011;55157;51.036;17.058;2023-08-30T13:47:56;1.27;;;0.80;;
68310;SDS011;55157;51.036;17.058;2023-08-30T13:50:21;1.67;;;1.00;;
68310;SDS011;55157;51.036;17.058;2023-08-30T13:52:47;1.55;;;0.88;;
68310;SDS011;55157;51.036;17.058;2023-08-30T13:55:12;2.05;;;0.80;;
68310;SDS011;55157;51.036;17.058;2023-08-30T13:57:39;1.08;;;0.82;;
68310;SDS011;55157;51.036;17.058;2023-08-30T14:00:04;1.00;;;0.90;;
68310;SDS011;55157;51.036;17.058;2023-08-30T14:02:30;1.35;;;1.02;;
68310;SDS011;55157;51.036;17.058;2023-08-30T14:04:55;6.22;;;0.95;;
68310;SDS011;55157;51.036;17.058;2023-08-30T14:07:20;1.05;;;0.82;;
68310;SDS011;55157;51.036;17.058;2023-08-30T14:09:46;5.07;;;0.80;;
68310;SDS011;55157;51.036;17.058;2023-08-30T14:12:11;2.75;;;1.02;;
68310;SDS011;55157;51.036;17.058;2023-08-30T14:14:38;0.80;;;0.70;;
68310;SDS011;55157;51.036;17.058;2023-08-30T14:17:03;3.55;;;0.90;;
68310;SDS011;55157;51.036;17.058;2023-08-30T14:19:28;2.25;;;1.10;;
68310;SDS011;55157;51.036;17.058;2023-08-30T14:21:53;5.85;;;2.13;;
68310;SDS011;55157;51.036;17.058;2023-08-30T14:24:18;2.83;;;1.40;;
68310;SDS011;55157;51.036;17.058;2023-08-30T14:26:44;1.50;;;1.20;;